Terminal Aerodrome Forecast
Issued by NWS

Home | Current Version | Previous Version | Graphics & Text | Print | Product List | Glossary On
Versions: 1 2 3 4 5 6 7 8 9 10 11 12 13 14 15 16 17 18 19 20 21 22 23 24 25 26 27
000
FTUS43 KLOT 240904 AAA
TAFGYY
TAF AMD
KGYY 240904Z 2409/2506 04005KT P6SM VCSH SCT008 BKN015 OVC025
      TEMPO 2410/2413 6SM -RA BR OVC010
     FM241700 36010KT P6SM VCSH SCT008 OVC014
     FM250500 35016G25KT P6SM FEW020 BKN035 BKN100=

USA.gov is the U.S. government's official web portal to all federal, state and local government web resources and services.